Time;durP1;ratioP1;P1;durP2;ratioP2;P2;SDS_P1;SDS_P2;PMS_P1;PMS_P2;Temp;Humidity;BMP_temperature;BMP_pressure;BME280_temperature;BME280_humidity;BME280_pressure;Samples;Min_cycle;Max_cycle;Signal;HPM_P1;HPM_P2
2021/03/04 00:01:04;;;;;;;86.13;45.05;;;9.00;95.10;;;;;;5102147;28;20432;-73
2021/03/04 00:03:31;;;;;;;86.00;45.92;;;9.00;94.90;;;;;;5104728;28;20946;-74
2021/03/04 00:05:57;;;;;;;87.70;47.40;;;9.00;94.80;;;;;;5103749;28;20419;-74
2021/03/04 00:08:24;;;;;;;82.50;44.93;;;9.00;94.80;;;;;;5107444;28;20442;-74
2021/03/04 00:10:51;;;;;;;82.53;45.70;;;9.10;94.70;;;;;;5105615;28;20431;-74
2021/03/04 00:13:17;;;;;;;81.57;45.00;;;9.10;94.70;;;;;;5105380;28;20420;-74
2021/03/04 00:15:44;;;;;;;79.25;44.58;;;9.10;94.60;;;;;;5102551;28;20423;-73
2021/03/04 00:18:10;;;;;;;76.03;44.97;;;9.00;94.30;;;;;;5104453;28;20465;-74
2021/03/04 00:20:37;;;;;;;78.47;45.38;;;9.00;94.40;;;;;;5105627;28;20510;-74
2021/03/04 00:23:03;;;;;;;80.38;44.63;;;9.00;94.40;;;;;;5102886;28;20840;-74
2021/03/04 00:25:31;;;;;;;76.88;44.38;;;9.00;94.50;;;;;;5105230;28;20773;-75
2021/03/04 00:27:59;;;;;;;74.65;43.22;;;9.00;94.50;;;;;;5105133;28;20424;-74
2021/03/04 00:30:26;;;;;;;71.65;42.05;;;9.00;94.40;;;;;;5105734;28;20904;-74
2021/03/04 00:32:53;;;;;;;71.18;42.08;;;9.00;94.40;;;;;;5105133;28;20923;-74
2021/03/04 00:35:20;;;;;;;72.72;42.22;;;9.00;94.30;;;;;;5105749;28;20412;-74
2021/03/04 00:37:46;;;;;;;71.75;42.58;;;9.00;94.30;;;;;;5106361;28;20428;-74
2021/03/04 00:40:15;;;;;;;72.15;42.22;;;9.00;94.30;;;;;;5101483;28;20431;-75
2021/03/04 00:42:42;;;;;;;76.18;44.22;;;8.90;94.20;;;;;;5106408;28;20491;-74
2021/03/04 00:45:11;;;;;;;76.43;44.47;;;8.90;94.30;;;;;;5104424;28;20916;-74
2021/03/04 00:47:38;;;;;;;76.93;43.90;;;8.90;94.30;;;;;;5106063;28;20429;-74
2021/03/04 00:50:06;;;;;;;79.65;44.88;;;8.90;94.40;;;;;;5105315;28;20432;-74
2021/03/04 00:52:32;;;;;;;74.75;43.20;;;8.90;94.40;;;;;;5104474;28;20477;-74
2021/03/04 00:54:59;;;;;;;75.47;42.05;;;8.90;94.40;;;;;;5102999;28;20472;-74
2021/03/04 00:57:26;;;;;;;68.65;40.55;;;8.90;94.20;;;;;;5103499;28;20428;-74
2021/03/04 00:59:52;;;;;;;70.38;41.88;;;8.90;94.30;;;;;;5102875;28;20424;-74
2021/03/04 01:02:19;;;;;;;67.57;39.88;;;8.90;94.30;;;;;;5103009;28;20422;-74
2021/03/04 01:04:45;;;;;;;69.68;39.97;;;8.90;94.20;;;;;;5101421;28;20433;-75
2021/03/04 01:07:12;;;;;;;70.30;40.30;;;8.90;94.30;;;;;;5106339;28;20423;-74
2021/03/04 01:09:38;;;;;;;70.28;40.17;;;8.90;94.30;;;;;;5101151;28;20802;-74
2021/03/04 01:12:05;;;;;;;68.15;40.47;;;8.90;94.30;;;;;;5101845;28;20423;-74
2021/03/04 01:14:32;;;;;;;70.18;41.20;;;8.90;94.20;;;;;;5102601;28;20884;-74
2021/03/04 01:16:58;;;;;;;68.60;41.15;;;8.90;94.30;;;;;;5103716;28;20433;-74
2021/03/04 01:19:26;;;;;;;71.40;41.10;;;8.90;94.60;;;;;;5105140;28;21740;-74
2021/03/04 01:21:52;;;;;;;74.55;41.70;;;8.90;94.30;;;;;;5103605;28;20471;-74
2021/03/04 01:24:19;;;;;;;69.63;40.65;;;8.90;94.30;;;;;;5104732;28;20970;-74
2021/03/04 01:26:45;;;;;;;71.50;41.08;;;8.90;94.30;;;;;;5104316;28;20419;-74
2021/03/04 01:29:11;;;;;;;78.93;43.38;;;8.90;94.30;;;;;;5103298;28;20477;-74
2021/03/04 01:31:38;;;;;;;73.13;42.83;;;8.90;94.30;;;;;;5103020;28;20473;-74
2021/03/04 01:34:04;;;;;;;78.85;43.72;;;8.90;94.30;;;;;;5103977;28;20907;-73
2021/03/04 01:36:31;;;;;;;78.43;43.65;;;8.90;94.30;;;;;;5101898;28;20887;-74
2021/03/04 01:38:57;;;;;;;79.47;43.60;;;8.90;94.20;;;;;;5104013;28;20434;-74
2021/03/04 01:41:24;;;;;;;81.82;45.40;;;8.80;94.30;;;;;;5102331;28;20424;-74
2021/03/04 01:43:50;;;;;;;81.88;45.55;;;8.90;94.40;;;;;;5105056;28;20773;-75
2021/03/04 01:46:16;;;;;;;79.38;46.10;;;8.90;94.40;;;;;;5104647;28;20431;-74
2021/03/04 01:48:43;;;;;;;77.97;44.38;;;8.90;94.30;;;;;;5103899;28;20846;-74
2021/03/04 01:51:09;;;;;;;77.45;43.50;;;8.90;94.30;;;;;;5100692;28;20920;-74
2021/03/04 01:53:37;;;;;;;76.57;43.13;;;8.90;94.20;;;;;;5104714;28;20419;-74
2021/03/04 01:56:05;;;;;;;76.72;42.88;;;8.90;94.20;;;;;;5102226;28;20784;-74
2021/03/04 01:58:31;;;;;;;78.40;43.38;;;8.80;94.30;;;;;;5101778;28;20900;-74
2021/03/04 02:00:57;;;;;;;73.93;42.88;;;8.80;94.30;;;;;;5105088;28;20776;-74
2021/03/04 02:03:25;;;;;;;86.00;47.00;;;8.90;94.30;;;;;;5102626;28;20419;-74
2021/03/04 02:05:51;;;;;;;88.97;48.42;;;8.80;94.30;;;;;;5105040;28;20418;-74
2021/03/04 02:08:22;;;;;;;78.07;44.27;;;8.90;94.30;;;;;;5101897;28;20434;-74
2021/03/04 02:10:52;;;;;;;74.47;43.20;;;8.80;94.20;;;;;;5102897;28;20945;-74
2021/03/04 02:13:26;;;;;;;75.93;43.83;;;8.80;94.60;;;;;;5103820;28;20432;-74
2021/03/04 02:15:59;;;;;;;75.72;43.40;;;8.80;94.20;;;;;;5105579;28;20416;-74
2021/03/04 02:18:29;;;;;;;67.85;39.85;;;8.80;94.00;;;;;;5104354;28;20420;-75
2021/03/04 02:21:10;;;;;;;66.85;39.53;;;8.80;94.10;;;;;;5103016;28;20416;-74
2021/03/04 02:24:05;;;;;;;64.57;38.05;;;8.80;94.00;;;;;;5105857;28;20420;-74
2021/03/04 02:27:01;;;;;;;65.45;38.67;;;8.80;94.30;;;;;;5103293;28;20508;-74
2021/03/04 02:29:30;;;;;;;64.05;38.03;;;8.80;93.80;;;;;;5105815;28;20478;-74
2021/03/04 02:31:59;;;;;;;64.85;38.03;;;8.80;93.80;;;;;;5108850;28;20427;-74
2021/03/04 02:34:27;;;;;;;68.00;38.78;;;8.70;93.80;;;;;;5105601;28;20426;-74
2021/03/04 02:36:55;;;;;;;73.20;40.43;;;8.70;93.90;;;;;;5106355;28;20433;-74
2021/03/04 02:39:24;;;;;;;68.93;38.95;;;8.70;94.00;;;;;;5102761;28;20428;-74
2021/03/04 02:41:52;;;;;;;73.43;40.45;;;8.70;94.10;;;;;;5107940;28;20916;-74
2021/03/04 02:44:21;;;;;;;69.70;38.88;;;8.70;94.20;;;;;;5101008;28;20773;-74
2021/03/04 02:46:48;;;;;;;65.43;38.05;;;8.70;94.10;;;;;;5106732;28;20434;-74
2021/03/04 02:49:16;;;;;;;67.78;37.45;;;8.70;94.00;;;;;;5103904;28;20784;-74
2021/03/04 02:51:43;;;;;;;66.80;37.78;;;8.70;93.90;;;;;;5107315;28;20419;-74
2021/03/04 02:54:11;;;;;;;72.03;39.60;;;8.70;93.90;;;;;;5104954;28;20428;-75
2021/03/04 02:56:37;;;;;;;70.10;39.88;;;8.80;93.80;;;;;;5105405;28;20423;-74
2021/03/04 02:59:06;;;;;;;63.60;37.05;;;8.70;93.70;;;;;;5102969;28;20433;-74
2021/03/04 03:01:34;;;;;;;69.53;37.97;;;8.80;93.60;;;;;;5105711;28;20428;-74
2021/03/04 03:04:01;;;;;;;68.70;37.70;;;8.70;93.60;;;;;;5106380;28;20416;-74
2021/03/04 03:06:29;;;;;;;72.57;37.78;;;8.70;93.60;;;;;;5104527;28;20424;-74
2021/03/04 03:08:56;;;;;;;69.78;38.22;;;8.70;93.60;;;;;;5107494;28;20432;-74
2021/03/04 03:11:23;;;;;;;76.03;39.97;;;8.70;93.60;;;;;;5106667;28;20438;-74
2021/03/04 03:13:52;;;;;;;75.37;39.30;;;8.60;93.60;;;;;;5104950;28;20432;-74
2021/03/04 03:16:19;;;;;;;78.82;40.33;;;8.60;93.80;;;;;;5106875;28;20823;-74
2021/03/04 03:18:46;;;;;;;80.65;39.60;;;8.60;93.90;;;;;;5103511;27;20421;-74
2021/03/04 03:21:13;;;;;;;77.40;39.00;;;8.60;93.90;;;;;;5108373;28;20765;-74
2021/03/04 03:23:39;;;;;;;78.97;40.42;;;8.60;94.00;;;;;;5105498;28;20454;-74
2021/03/04 03:26:05;;;;;;;81.67;40.20;;;8.60;94.00;;;;;;5105684;28;20940;-74
2021/03/04 03:28:32;;;;;;;80.13;40.13;;;8.60;94.00;;;;;;5102712;28;20488;-74
2021/03/04 03:30:59;;;;;;;79.05;39.42;;;8.60;93.90;;;;;;5106721;28;20424;-74
2021/03/04 03:33:26;;;;;;;76.28;38.55;;;8.60;93.90;;;;;;5106026;28;20424;-74
2021/03/04 03:35:54;;;;;;;79.00;39.05;;;8.60;93.90;;;;;;5103535;28;20441;-74
2021/03/04 03:38:21;;;;;;;72.10;37.33;;;8.60;93.60;;;;;;5105599;28;20424;-74
2021/03/04 03:40:50;;;;;;;73.32;37.05;;;8.60;93.50;;;;;;5105755;28;20441;-74
2021/03/04 03:43:17;;;;;;;76.13;38.17;;;8.60;93.50;;;;;;5104382;28;20431;-74
2021/03/04 03:45:45;;;;;;;76.35;38.85;;;8.60;93.40;;;;;;5104847;28;20427;-74
2021/03/04 03:48:13;;;;;;;78.37;39.60;;;8.60;93.30;;;;;;5104461;28;20433;-74
2021/03/04 03:50:42;;;;;;;85.50;40.40;;;8.60;93.40;;;;;;5106847;28;20499;-74
2021/03/04 03:53:12;;;;;;;82.85;40.20;;;8.60;93.60;;;;;;5102715;28;20799;-74
2021/03/04 03:55:39;;;;;;;88.83;40.67;;;8.60;93.50;;;;;;5105095;28;20473;-75
2021/03/04 03:58:07;;;;;;;86.20;40.42;;;8.60;93.50;;;;;;5101565;28;20427;-74
2021/03/04 04:00:34;;;;;;;86.40;40.50;;;8.60;93.50;;;;;;5106479;28;20423;-74
2021/03/04 04:03:02;;;;;;;85.80;40.70;;;8.60;93.50;;;;;;5103931;28;20431;-74
2021/03/04 04:05:29;;;;;;;87.57;40.42;;;8.60;93.40;;;;;;5103382;28;20519;-74
2021/03/04 04:07:57;;;;;;;93.20;42.60;;;8.60;93.40;;;;;;5105637;28;20899;-75
2021/03/04 04:10:25;;;;;;;90.67;41.20;;;8.60;93.40;;;;;;5104017;28;20416;-74
2021/03/04 04:12:51;;;;;;;90.80;41.47;;;8.60;93.50;;;;;;5106703;27;20431;-74
2021/03/04 04:15:19;;;;;;;97.43;41.92;;;8.60;93.60;;;;;;5103069;28;20432;-74
2021/03/04 04:17:46;;;;;;;93.07;41.20;;;8.60;93.70;;;;;;5105908;28;20424;-74
2021/03/04 04:20:13;;;;;;;94.23;41.33;;;8.60;93.70;;;;;;5104020;28;20729;-74
2021/03/04 04:22:40;;;;;;;94.17;42.23;;;8.60;93.70;;;;;;5106633;28;20432;-74
2021/03/04 04:25:07;;;;;;;94.78;41.33;;;8.60;93.70;;;;;;5103982;28;20895;-74
2021/03/04 04:27:35;;;;;;;94.18;41.78;;;8.60;93.80;;;;;;5103353;28;20424;-74
2021/03/04 04:30:01;;;;;;;98.32;42.38;;;8.60;93.70;;;;;;5106859;28;20435;-74
2021/03/04 04:32:27;;;;;;;93.38;41.60;;;8.60;93.80;;;;;;5103932;27;20427;-74
2021/03/04 04:34:54;;;;;;;96.13;41.67;;;8.60;94.20;;;;;;5107111;28;20424;-74
2021/03/04 04:37:20;;;;;;;97.13;41.20;;;8.60;93.90;;;;;;5103399;28;20471;-74
2021/03/04 04:39:46;;;;;;;94.28;40.90;;;8.60;93.80;;;;;;5105723;28;21128;-73
2021/03/04 04:42:12;;;;;;;97.95;41.15;;;8.60;93.80;;;;;;5103710;28;20426;-74
2021/03/04 04:44:40;;;;;;;99.03;42.58;;;8.70;93.80;;;;;;5106772;28;20803;-74
2021/03/04 04:47:06;;;;;;;101.70;41.83;;;8.60;93.70;;;;;;5101892;28;21260;-74
2021/03/04 04:49:32;;;;;;;99.83;42.37;;;8.60;93.60;;;;;;5102373;28;20420;-74
2021/03/04 04:51:59;;;;;;;96.33;41.53;;;8.70;93.70;;;;;;5104718;28;20420;-74
2021/03/04 04:54:25;;;;;;;98.32;40.97;;;8.60;93.70;;;;;;5102893;28;20420;-74
2021/03/04 04:56:51;;;;;;;91.65;39.75;;;8.60;93.70;;;;;;5105327;28;20465;-74
2021/03/04 04:59:18;;;;;;;88.35;39.47;;;8.60;93.60;;;;;;5101927;28;20781;-74
2021/03/04 05:01:45;;;;;;;84.80;38.58;;;8.70;93.70;;;;;;5104014;28;20433;-75
2021/03/04 05:04:11;;;;;;;87.60;39.22;;;8.70;93.50;;;;;;5103234;28;20424;-74
2021/03/04 05:06:38;;;;;;;85.80;38.30;;;8.70;93.40;;;;;;5102176;28;20419;-74
2021/03/04 05:09:05;;;;;;;85.87;37.67;;;8.70;93.30;;;;;;5103529;28;20427;-74
2021/03/04 05:11:31;;;;;;;80.68;37.55;;;8.60;93.30;;;;;;5100651;28;20420;-74
2021/03/04 05:13:57;;;;;;;77.97;36.72;;;8.60;93.30;;;;;;5102779;28;20424;-74
2021/03/04 05:16:24;;;;;;;82.32;37.70;;;8.60;93.30;;;;;;5105647;28;20424;-74
2021/03/04 05:18:51;;;;;;;83.07;37.33;;;8.60;93.30;;;;;;5104081;28;20896;-74
2021/03/04 05:21:18;;;;;;;85.05;37.90;;;8.60;93.30;;;;;;5106303;28;20931;-74
2021/03/04 05:23:44;;;;;;;82.65;37.13;;;8.60;93.30;;;;;;5102029;28;20893;-74
2021/03/04 05:26:10;;;;;;;81.45;38.28;;;8.60;93.30;;;;;;5105443;28;20428;-74
2021/03/04 05:28:36;;;;;;;83.32;38.67;;;8.60;93.40;;;;;;5102516;28;20424;-74
2021/03/04 05:31:03;;;;;;;86.17;38.87;;;8.60;93.30;;;;;;5104007;28;20427;-74
2021/03/04 05:33:29;;;;;;;82.85;38.72;;;8.70;93.40;;;;;;5104151;28;20480;-74
2021/03/04 05:35:56;;;;;;;88.18;39.00;;;8.70;93.50;;;;;;5102190;28;20423;-73
2021/03/04 05:38:23;;;;;;;85.75;39.80;;;8.70;93.40;;;;;;5103766;28;20427;-74
2021/03/04 05:40:50;;;;;;;92.32;40.83;;;8.70;93.40;;;;;;5101600;28;20754;-75
2021/03/04 05:43:17;;;;;;;87.72;39.20;;;8.70;93.40;;;;;;5100639;28;20436;-76
2021/03/04 05:45:48;;;;;;;89.93;39.03;;;8.60;93.40;;;;;;5104746;28;20424;-76
2021/03/04 05:48:19;;;;;;;87.03;39.78;;;8.60;93.50;;;;;;5104086;28;20422;-75
2021/03/04 05:50:49;;;;;;;88.95;38.72;;;8.60;93.50;;;;;;5104641;28;20458;-75
2021/03/04 05:53:19;;;;;;;85.93;38.07;;;8.60;93.60;;;;;;5104497;28;20903;-75
2021/03/04 05:55:47;;;;;;;84.70;38.53;;;8.60;93.60;;;;;;5101067;28;20431;-76
2021/03/04 05:58:14;;;;;;;87.30;38.90;;;8.60;93.60;;;;;;5102430;28;20824;-76
2021/03/04 06:00:41;;;;;;;86.68;38.55;;;8.60;93.70;;;;;;5107911;28;20419;-76
2021/03/04 06:03:08;;;;;;;88.22;37.72;;;8.60;93.70;;;;;;5102966;28;20431;-76
2021/03/04 06:05:36;;;;;;;89.07;38.42;;;8.60;93.70;;;;;;5106448;28;20432;-75
2021/03/04 06:08:03;;;;;;;88.22;39.65;;;8.70;93.80;;;;;;5105638;28;20496;-73
2021/03/04 06:10:31;;;;;;;86.03;39.47;;;8.70;93.80;;;;;;5106060;28;20424;-75
2021/03/04 06:12:58;;;;;;;89.60;39.47;;;8.70;93.80;;;;;;5108586;27;20423;-75
2021/03/04 06:15:25;;;;;;;93.13;39.35;;;8.70;93.80;;;;;;5106167;28;20412;-75
2021/03/04 06:17:53;;;;;;;89.87;40.47;;;8.70;93.80;;;;;;5107683;27;20416;-81
2021/03/04 06:20:20;;;;;;;88.07;39.72;;;8.70;93.90;;;;;;5109752;28;20431;-75
2021/03/04 06:22:47;;;;;;;90.28;39.95;;;8.70;93.90;;;;;;5111705;28;20403;-75
2021/03/04 06:25:15;;;;;;;85.47;39.25;;;8.70;93.80;;;;;;5108132;28;20427;-74
2021/03/04 06:27:45;;;;;;;88.68;40.47;;;8.70;93.90;;;;;;5107359;28;20937;-75
2021/03/04 06:30:14;;;;;;;88.93;40.40;;;8.70;93.80;;;;;;5110905;27;20420;-74
2021/03/04 06:32:42;;;;;;;88.82;39.78;;;8.70;93.90;;;;;;5106205;27;20417;-74
2021/03/04 06:35:13;;;;;;;83.40;39.35;;;8.70;94.00;;;;;;5110604;28;20411;-74
2021/03/04 06:37:41;;;;;;;91.35;39.28;;;8.70;93.90;;;;;;5109385;28;20435;-76
2021/03/04 06:40:16;;;;;;;83.82;39.03;;;8.70;94.00;;;;;;5106458;27;20438;-75
2021/03/04 06:42:46;;;;;;;87.90;39.58;;;8.70;94.00;;;;;;5109794;28;20419;-78
2021/03/04 06:45:23;;;;;;;86.20;39.58;;;8.60;94.00;;;;;;5109168;28;20510;-77
2021/03/04 06:47:49;;;;;;;86.90;39.67;;;8.60;94.10;;;;;;5109607;28;20516;-75
2021/03/04 06:50:23;;;;;;;85.70;38.67;;;8.70;94.20;;;;;;5110908;27;20419;-76
2021/03/04 06:52:50;;;;;;;85.27;39.20;;;8.60;94.20;;;;;;5110557;28;20423;-77
2021/03/04 06:55:16;;;;;;;81.35;38.83;;;8.60;94.50;;;;;;5111086;27;20416;-77
2021/03/04 06:57:59;;;;;;;80.22;38.25;;;8.60;94.40;;;;;;5110417;28;20718;-74
2021/03/04 07:00:26;;;;;;;73.45;36.67;;;8.60;94.40;;;;;;5108561;27;20447;-75
2021/03/04 07:02:53;;;;;;;77.38;37.30;;;8.60;94.40;;;;;;5110322;28;20827;-76
2021/03/04 07:05:21;;;;;;;76.07;36.50;;;8.50;94.30;;;;;;5111542;28;20428;-75
2021/03/04 07:07:51;;;;;;;76.57;36.85;;;8.60;94.40;;;;;;5111204;28;20415;-75
2021/03/04 07:10:19;;;;;;;78.60;38.60;;;8.60;94.60;;;;;;5110199;28;20464;-75
2021/03/04 07:12:46;;;;;;;73.93;37.33;;;8.60;94.70;;;;;;5108514;28;20754;-77
2021/03/04 07:15:15;;;;;;;76.60;36.30;;;8.60;94.80;;;;;;5107754;27;21205;-76
2021/03/04 07:17:43;;;;;;;70.57;35.13;;;8.60;94.90;;;;;;5107456;27;20423;-78
2021/03/04 07:20:13;;;;;;;68.85;34.17;;;8.50;94.80;;;;;;5108037;28;20523;-78
2021/03/04 07:22:44;;;;;;;65.85;32.72;;;8.50;94.80;;;;;;5109361;28;20420;-78
2021/03/04 07:25:13;;;;;;;61.27;31.50;;;8.60;94.70;;;;;;5109095;28;20428;-75
2021/03/04 07:27:40;;;;;;;58.00;29.42;;;8.60;94.70;;;;;;5107796;28;20408;-76
2021/03/04 07:30:08;;;;;;;59.43;29.70;;;8.60;94.80;;;;;;5109433;27;20431;-76
2021/03/04 07:32:36;;;;;;;56.17;27.90;;;8.60;94.40;;;;;;5109758;28;20416;-78
2021/03/04 07:35:03;;;;;;;52.83;28.13;;;8.60;94.20;;;;;;5108838;28;20903;-76
2021/03/04 07:37:30;;;;;;;53.28;27.90;;;8.60;94.10;;;;;;5111063;28;20424;-79
2021/03/04 07:40:00;;;;;;;51.17;25.30;;;8.50;94.20;;;;;;5110583;28;20404;-78
2021/03/04 07:42:27;;;;;;;49.67;27.02;;;8.60;94.10;;;;;;5108732;28;20416;-77
2021/03/04 07:45:09;;;;;;;50.07;25.77;;;8.60;94.20;;;;;;5107464;28;20488;-77
2021/03/04 07:47:37;;;;;;;53.33;26.83;;;8.60;94.10;;;;;;5107947;28;20443;-77
2021/03/04 07:50:15;;;;;;;52.28;26.48;;;8.60;94.10;;;;;;5106178;28;20465;-79
2021/03/04 07:52:41;;;;;;;56.08;26.48;;;8.50;94.40;;;;;;5109004;28;20499;-77
2021/03/04 07:55:10;;;;;;;55.13;27.00;;;8.50;94.70;;;;;;5109828;28;20404;-75
2021/03/04 07:57:43;;;;;;;55.58;28.98;;;8.50;94.90;;;;;;5108679;28;20416;-76
2021/03/04 08:00:11;;;;;;;57.00;27.27;;;8.60;94.90;;;;;;5107442;28;20407;-75
2021/03/04 08:02:42;;;;;;;54.60;26.35;;;8.60;95.20;;;;;;5106812;28;20518;-75
2021/03/04 08:05:10;;;;;;;51.88;26.05;;;8.60;95.40;;;;;;5108653;28;20452;-75
2021/03/04 08:07:37;;;;;;;54.03;25.95;;;8.60;95.60;;;;;;5109730;27;20780;-78
2021/03/04 08:10:09;;;;;;;55.67;27.25;;;8.60;95.70;;;;;;5106536;27;20424;-75
2021/03/04 08:12:47;;;;;;;55.08;27.08;;;8.60;96.00;;;;;;5108274;28;20481;-78
2021/03/04 08:15:15;;;;;;;50.37;25.30;;;8.60;95.90;;;;;;5108733;28;20771;-75
2021/03/04 08:17:43;;;;;;;51.00;25.30;;;8.60;96.00;;;;;;5109792;28;20919;-73
2021/03/04 08:20:11;;;;;;;49.22;24.98;;;8.60;95.90;;;;;;5108837;28;20417;-74
2021/03/04 08:22:44;;;;;;;49.97;25.35;;;8.60;96.00;;;;;;5107151;28;20424;-78
2021/03/04 08:25:13;;;;;;;55.65;26.02;;;8.60;96.20;;;;;;5108458;28;20427;-73
2021/03/04 08:27:41;;;;;;;51.65;26.17;;;8.60;96.40;;;;;;5109858;28;20438;-73
2021/03/04 08:30:09;;;;;;;50.08;25.05;;;8.60;96.50;;;;;;5109960;28;20416;-73
2021/03/04 08:32:36;;;;;;;41.55;22.08;;;8.60;96.30;;;;;;5105821;28;20416;-73
2021/03/04 08:35:14;;;;;;;44.10;22.77;;;8.60;96.30;;;;;;5108054;28;20412;-75
2021/03/04 08:37:40;;;;;;;46.10;24.08;;;8.60;96.40;;;;;;5107877;28;20423;-73
2021/03/04 08:40:07;;;;;;;48.08;24.17;;;8.60;96.50;;;;;;5109557;28;20420;-74
2021/03/04 08:42:34;;;;;;;41.50;22.77;;;8.60;96.60;;;;;;5107560;28;20420;-74
2021/03/04 08:45:00;;;;;;;46.47;23.08;;;8.70;96.60;;;;;;5108926;28;20464;-73
2021/03/04 08:47:26;;;;;;;37.95;20.33;;;8.70;96.40;;;;;;5108355;28;20408;-76
2021/03/04 08:49:54;;;;;;;34.72;18.70;;;8.70;96.20;;;;;;5104094;27;20426;-73
2021/03/04 08:52:24;;;;;;;32.65;18.08;;;8.60;96.10;;;;;;5101808;28;20434;-73
2021/03/04 08:54:52;;;;;;;27.45;15.77;;;8.60;96.20;;;;;;5103297;28;20433;-73
2021/03/04 08:57:23;;;;;;;27.15;15.00;;;8.60;96.20;;;;;;5101062;28;20425;-74
2021/03/04 09:00:00;;;;;;;24.20;14.80;;;8.60;96.10;;;;;;5104628;28;20428;-75
2021/03/04 09:02:27;;;;;;;26.70;15.67;;;8.60;96.20;;;;;;5103995;28;21954;-73
2021/03/04 09:04:53;;;;;;;24.50;15.85;;;8.60;96.30;;;;;;5105592;28;20432;-73
2021/03/04 09:07:32;;;;;;;25.27;16.33;;;8.60;96.50;;;;;;5102792;28;20780;-74
2021/03/04 09:09:59;;;;;;;27.80;16.30;;;8.60;96.50;;;;;;5103738;28;20910;-72
2021/03/04 09:12:26;;;;;;;26.43;16.23;;;8.60;96.90;;;;;;5104346;28;20427;-73
2021/03/04 09:14:55;;;;;;;28.73;16.83;;;8.60;96.90;;;;;;5102265;28;20414;-74
2021/03/04 09:17:22;;;;;;;25.60;16.70;;;8.70;96.90;;;;;;5101444;28;20420;-72
2021/03/04 09:19:54;;;;;;;24.52;15.70;;;8.70;96.60;;;;;;5103217;28;20429;-74
2021/03/04 09:22:20;;;;;;;26.90;16.02;;;8.70;96.10;;;;;;5105883;28;20476;-73
2021/03/04 09:24:48;;;;;;;22.30;14.85;;;8.70;95.80;;;;;;5105007;28;20427;-74
2021/03/04 09:27:17;;;;;;;21.33;13.33;;;8.70;95.80;;;;;;5102113;28;20412;-73
2021/03/04 09:29:44;;;;;;;20.10;13.10;;;8.80;95.30;;;;;;5102837;28;20436;-73
2021/03/04 09:32:11;;;;;;;15.38;11.43;;;8.80;95.00;;;;;;5101834;28;20443;-74
2021/03/04 09:34:39;;;;;;;17.10;11.63;;;8.90;94.60;;;;;;5107408;28;20442;-74
2021/03/04 09:37:06;;;;;;;18.55;11.82;;;8.90;93.80;;;;;;5103089;28;20459;-72
2021/03/04 09:39:38;;;;;;;12.97;10.00;;;8.80;93.80;;;;;;5107722;28;20424;-74
2021/03/04 09:42:05;;;;;;;12.30;9.20;;;8.80;93.70;;;;;;5106501;28;20421;-72
2021/03/04 09:44:32;;;;;;;13.13;9.77;;;8.90;93.30;;;;;;5106792;28;20424;-74
2021/03/04 09:46:58;;;;;;;12.93;9.27;;;8.80;93.20;;;;;;5106423;28;20443;-74
2021/03/04 09:49:32;;;;;;;12.23;9.20;;;8.80;93.20;;;;;;5110062;28;20427;-73
2021/03/04 09:51:59;;;;;;;12.70;9.18;;;8.80;93.00;;;;;;5108137;28;20426;-74
2021/03/04 09:54:26;;;;;;;12.30;9.33;;;8.80;92.90;;;;;;5109577;28;20424;-74
2021/03/04 09:57:08;;;;;;;13.90;9.45;;;8.80;92.90;;;;;;5107399;28;20435;-73
2021/03/04 09:59:44;;;;;;;13.55;9.75;;;8.80;92.70;;;;;;5108201;28;20932;-73
2021/03/04 10:02:10;;;;;;;13.77;10.55;;;8.80;92.70;;;;;;5104990;28;20481;-73
2021/03/04 10:04:36;;;;;;;15.05;10.35;;;8.80;92.70;;;;;;5108462;27;20422;-74
2021/03/04 10:07:15;;;;;;;14.60;10.23;;;8.80;92.70;;;;;;5107750;28;20783;-73
2021/03/04 10:09:47;;;;;;;13.20;10.30;;;8.80;92.70;;;;;;5108983;28;20420;-73
2021/03/04 10:12:14;;;;;;;14.35;10.05;;;8.80;92.50;;;;;;5106694;28;20419;-73
2021/03/04 10:14:45;;;;;;;13.75;9.32;;;8.80;92.40;;;;;;5109137;28;20424;-73
2021/03/04 10:17:11;;;;;;;13.23;10.43;;;8.90;92.60;;;;;;5106180;28;20423;-73
2021/03/04 10:19:38;;;;;;;12.50;9.55;;;8.90;92.20;;;;;;5108228;28;20432;-74
2021/03/04 10:22:05;;;;;;;12.48;9.38;;;8.90;92.10;;;;;;5105743;28;20431;-72
2021/03/04 10:24:31;;;;;;;14.45;10.18;;;8.90;92.00;;;;;;5107077;28;21001;-73
2021/03/04 10:26:58;;;;;;;13.80;9.55;;;8.90;92.10;;;;;;5106754;28;20439;-73
2021/03/04 10:29:26;;;;;;;14.98;10.00;;;9.00;91.90;;;;;;5107687;28;20446;-73
2021/03/04 10:31:53;;;;;;;15.90;10.57;;;9.10;91.70;;;;;;5105337;28;20446;-73
2021/03/04 10:34:19;;;;;;;15.27;9.90;;;9.20;91.60;;;;;;5106753;28;20424;-74
2021/03/04 10:36:46;;;;;;;14.37;10.27;;;9.20;91.70;;;;;;5105679;28;20419;-73
2021/03/04 10:39:14;;;;;;;14.85;10.18;;;9.30;91.60;;;;;;5108201;28;20476;-73
2021/03/04 10:41:40;;;;;;;15.25;10.57;;;9.40;91.40;;;;;;5104822;28;20428;-73
2021/03/04 10:44:08;;;;;;;20.08;12.45;;;9.50;91.40;;;;;;5106977;28;20488;-72
2021/03/04 10:46:35;;;;;;;14.45;9.77;;;9.50;91.10;;;;;;5104755;27;20424;-72
2021/03/04 10:49:02;;;;;;;13.68;9.25;;;9.60;91.00;;;;;;5104379;28;20416;-73
2021/03/04 10:51:29;;;;;;;11.65;9.10;;;9.60;90.70;;;;;;5101298;28;20432;-72
2021/03/04 10:53:55;;;;;;;12.32;7.93;;;9.70;90.50;;;;;;5106378;28;20970;-73
2021/03/04 10:56:22;;;;;;;10.68;6.93;;;9.70;90.00;;;;;;5101861;28;20422;-73
2021/03/04 10:58:48;;;;;;;11.05;7.20;;;9.70;89.40;;;;;;5104963;28;20435;-74
2021/03/04 11:01:14;;;;;;;10.85;6.85;;;9.70;88.60;;;;;;5104358;28;20424;-74
2021/03/04 11:03:42;;;;;;;12.43;6.93;;;9.70;88.30;;;;;;5105434;28;20484;-78
2021/03/04 11:06:10;;;;;;;8.75;5.82;;;9.70;88.50;;;;;;5106238;28;20428;-73
2021/03/04 11:08:37;;;;;;;12.40;6.20;;;9.60;87.50;;;;;;5108379;28;20427;-76
2021/03/04 11:11:03;;;;;;;10.00;6.20;;;9.60;87.50;;;;;;5106924;28;20465;-75
2021/03/04 11:13:29;;;;;;;13.55;6.43;;;9.60;87.50;;;;;;5105741;28;20792;-73
2021/03/04 11:15:56;;;;;;;12.57;6.95;;;9.60;87.60;;;;;;5101883;28;20425;-73
2021/03/04 11:18:22;;;;;;;11.40;6.50;;;9.60;87.60;;;;;;5105758;27;20455;-74
2021/03/04 11:20:49;;;;;;;14.00;6.00;;;9.60;87.30;;;;;;5102444;28;20425;-75
2021/03/04 11:23:16;;;;;;;10.98;6.22;;;9.70;86.80;;;;;;5107436;28;20435;-74
2021/03/04 11:25:42;;;;;;;10.50;5.90;;;9.70;86.80;;;;;;5104860;28;20424;-75
2021/03/04 11:28:08;;;;;;;11.20;6.18;;;9.70;87.30;;;;;;5108549;28;20968;-73
2021/03/04 11:30:36;;;;;;;11.20;6.07;;;9.70;87.60;;;;;;5102694;28;20479;-74
2021/03/04 11:33:03;;;;;;;9.10;6.03;;;9.70;88.10;;;;;;5108422;28;20435;-74
2021/03/04 11:35:30;;;;;;;17.05;6.57;;;9.80;89.50;;;;;;5105952;28;20501;-74
2021/03/04 11:37:57;;;;;;;11.33;6.23;;;9.80;88.60;;;;;;5107811;28;20437;-75
2021/03/04 11:40:24;;;;;;;11.60;6.03;;;9.80;88.80;;;;;;5104716;27;20895;-74
2021/03/04 11:42:50;;;;;;;12.00;6.28;;;9.80;88.50;;;;;;5101390;27;20436;-76
2021/03/04 11:45:18;;;;;;;11.85;6.13;;;9.80;88.40;;;;;;5105306;28;20415;-75
2021/03/04 11:47:45;;;;;;;10.80;5.50;;;9.90;88.30;;;;;;5106986;28;20469;-75
2021/03/04 11:50:12;;;;;;;15.03;8.37;;;9.90;87.70;;;;;;5106742;28;20424;-78
2021/03/04 11:52:39;;;;;;;10.30;5.30;;;9.90;87.60;;;;;;5109000;28;20834;-77
2021/03/04 11:55:09;;;;;;;13.02;4.75;;;9.90;87.30;;;;;;5105021;28;20425;-76
2021/03/04 11:57:36;;;;;;;8.88;3.78;;;9.90;87.00;;;;;;5103464;28;20493;-76
2021/03/04 12:00:05;;;;;;;10.00;3.80;;;9.90;86.30;;;;;;5102958;28;20424;-75
2021/03/04 12:02:36;;;;;;;8.93;3.95;;;9.90;86.00;;;;;;5106630;28;20912;-78
2021/03/04 12:05:03;;;;;;;10.48;4.20;;;9.90;85.60;;;;;;5102245;28;20502;-77
2021/03/04 12:07:30;;;;;;;7.20;3.42;;;9.90;85.90;;;;;;5105772;28;20432;-76
2021/03/04 12:09:56;;;;;;;8.80;2.97;;;9.90;86.00;;;;;;5104411;28;20456;-76
2021/03/04 12:12:25;;;;;;;6.97;3.10;;;9.90;86.00;;;;;;5107660;28;20497;-77
2021/03/04 12:14:51;;;;;;;9.77;3.20;;;9.80;85.90;;;;;;5106772;28;20927;-76
2021/03/04 12:17:18;;;;;;;5.53;2.90;;;9.80;86.20;;;;;;5103850;28;20506;-76
2021/03/04 12:19:45;;;;;;;6.25;3.08;;;9.80;86.50;;;;;;5107753;28;20792;-78
2021/03/04 12:22:12;;;;;;;5.72;2.80;;;9.80;87.40;;;;;;5104934;28;20471;-78
2021/03/04 12:24:39;;;;;;;9.63;3.00;;;9.90;86.70;;;;;;5107383;28;20423;-80
2021/03/04 12:27:07;;;;;;;5.30;2.42;;;9.90;86.80;;;;;;5107170;28;20781;-78
2021/03/04 12:29:34;;;;;;;7.30;2.50;;;9.90;87.00;;;;;;5104542;28;20520;-75
2021/03/04 12:32:01;;;;;;;7.60;2.60;;;9.90;87.10;;;;;;5104251;27;20557;-77
2021/03/04 12:34:28;;;;;;;7.82;2.60;;;9.90;87.50;;;;;;5104493;28;21068;-77
2021/03/04 12:36:55;;;;;;;8.02;2.78;;;9.80;87.90;;;;;;5105687;28;20412;-77
2021/03/04 12:39:21;;;;;;;8.50;2.93;;;9.90;88.10;;;;;;5103756;28;20431;-78
2021/03/04 12:41:48;;;;;;;9.10;3.10;;;9.90;88.60;;;;;;5106016;28;20479;-75
2021/03/04 12:44:15;;;;;;;9.70;3.63;;;9.90;89.20;;;;;;5105098;27;20512;-77